createdAt,value
2023-01-27T00:00:26.005Z,100092.13
2023-01-27T00:01:07.850Z,100128.94
2023-01-27T00:01:51.319Z,100133.09
2023-01-27T00:02:33.454Z,100134.03
2023-01-27T00:03:15.482Z,100116.69
2023-01-27T00:03:57.193Z,100117.63
2023-01-27T00:04:38.824Z,100136.97
2023-01-27T00:05:20.559Z,100115.22
2023-01-27T00:06:04.684Z,100125.00
2023-01-27T00:06:46.477Z,100134.59
2023-01-27T00:07:28.191Z,100134.72
2023-01-27T00:08:09.990Z,100106.31
2023-01-27T00:08:51.622Z,100132.09
2023-01-27T00:09:33.348Z,100119.50
2023-01-27T00:10:20.253Z,100117.44
2023-01-27T00:11:20.475Z,100094.66
2023-01-27T00:12:20.576Z,100129.72
2023-01-27T00:13:20.879Z,100102.59
2023-01-27T00:14:02.566Z,100110.06
2023-01-27T00:14:44.254Z,100116.50
2023-01-27T00:15:26.011Z,100102.47
2023-01-27T00:16:07.860Z,100139.41
2023-01-27T00:16:49.744Z,100138.69
2023-01-27T00:17:31.564Z,100096.38
2023-01-27T00:18:13.351Z,100126.22
2023-01-27T00:18:55.075Z,100136.91
2023-01-27T00:19:36.742Z,100127.03
2023-01-27T00:20:37.111Z,100120.16
2023-01-27T00:21:37.411Z,100129.19
2023-01-27T00:22:37.954Z,100123.50
2023-01-27T00:23:42.990Z,100129.31
2023-01-27T00:24:36.429Z,100134.66
2023-01-27T00:25:18.238Z,100138.09
2023-01-27T00:26:01.206Z,100115.38
2023-01-27T00:26:43.100Z,100136.19
2023-01-27T00:27:27.127Z,100130.88
2023-01-27T00:28:08.794Z,100084.88
2023-01-27T00:28:50.647Z,100109.34
2023-01-27T00:29:33.883Z,100130.97
2023-01-27T00:30:15.600Z,100119.53
2023-01-27T00:31:00.825Z,100108.53
2023-01-27T00:32:01.877Z,100114.22
2023-01-27T00:33:04.152Z,100129.81
2023-01-27T00:33:49.484Z,100125.44
2023-01-27T00:34:31.142Z,100133.25
2023-01-27T00:35:12.917Z,100127.09
2023-01-27T00:36:03.865Z,100126.16
2023-01-27T00:36:45.477Z,100106.19
2023-01-27T00:37:27.323Z,100126.06
2023-01-27T00:38:09.031Z,100126.88
2023-01-27T00:38:50.735Z,100127.72
2023-01-27T00:39:32.375Z,100125.94
2023-01-27T00:40:16.911Z,100130.22
2023-01-27T00:41:17.407Z,100119.06
2023-01-27T00:41:59.326Z,100109.06
2023-01-27T00:42:42.437Z,100125.50
2023-01-27T00:43:24.107Z,100124.44
2023-01-27T00:44:06.838Z,100127.78
2023-01-27T00:45:06.950Z,100129.34
2023-01-27T00:45:48.662Z,100129.19
2023-01-27T00:46:30.399Z,100130.03
2023-01-27T00:47:12.096Z,100133.56
2023-01-27T00:47:54.421Z,100129.19
2023-01-27T00:48:36.361Z,100135.38
2023-01-27T00:49:18.306Z,100135.38
2023-01-27T00:50:00.028Z,100137.03
2023-01-27T00:50:41.681Z,100109.91
2023-01-27T00:51:24.074Z,100103.66
2023-01-27T00:52:05.743Z,100134.19
2023-01-27T00:52:47.398Z,100132.94
2023-01-27T00:53:29.297Z,100131.63
2023-01-27T00:54:11.479Z,100136.75
2023-01-27T00:54:53.188Z,100124.66
2023-01-27T00:55:34.879Z,100119.53
2023-01-27T00:56:16.814Z,100129.38
2023-01-27T00:56:58.581Z,100122.94
2023-01-27T00:57:40.238Z,100106.09
2023-01-27T00:58:22.454Z,100088.66
2023-01-27T00:59:04.908Z,100120.06
2023-01-27T00:59:46.833Z,100129.34
2023-01-27T01:00:28.471Z,100129.44
2023-01-27T01:01:13.109Z,100117.78
2023-01-27T01:01:54.994Z,100127.25
2023-01-27T01:02:36.937Z,100125.00
2023-01-27T01:03:18.641Z,100085.19
2023-01-27T01:04:01.210Z,100120.94
2023-01-27T01:04:42.828Z,100121.16
2023-01-27T01:05:24.641Z,100126.06
2023-01-27T01:06:10.301Z,100129.38
2023-01-27T01:06:51.937Z,100105.34
2023-01-27T01:07:33.609Z,100127.63
2023-01-27T01:08:15.458Z,100124.19
2023-01-27T01:08:57.732Z,100122.16
2023-01-27T01:09:39.445Z,100118.13
2023-01-27T01:10:21.107Z,100104.78
2023-01-27T01:11:03.554Z,100093.78
2023-01-27T01:11:45.235Z,100130.50
2023-01-27T01:12:27.453Z,100106.56
2023-01-27T01:13:11.792Z,100117.19
2023-01-27T01:13:56.037Z,100129.44
2023-01-27T01:14:38.316Z,100082.28
2023-01-27T01:15:20.961Z,100126.25
2023-01-27T01:16:14.622Z,100090.28
2023-01-27T01:16:56.609Z,100100.16
2023-01-27T01:17:38.251Z,100126.06
2023-01-27T01:18:20.367Z,100128.56
2023-01-27T01:19:01.977Z,100129.38
2023-01-27T01:19:43.598Z,100115.94
2023-01-27T01:20:25.258Z,100100.88
2023-01-27T01:21:07.550Z,100128.44
2023-01-27T01:21:49.236Z,100128.19
2023-01-27T01:22:31.683Z,100108.22
2023-01-27T01:23:14.703Z,100133.09
2023-01-27T01:23:56.380Z,100122.03
2023-01-27T01:24:38.024Z,100130.38
2023-01-27T01:25:19.720Z,100132.50
2023-01-27T01:26:04.509Z,100106.59
2023-01-27T01:26:46.413Z,100111.34
2023-01-27T01:27:29.352Z,100131.53
2023-01-27T01:28:11.060Z,100108.59
2023-01-27T01:28:52.716Z,100121.56
2023-01-27T01:29:34.397Z,100116.06
2023-01-27T01:30:16.561Z,100131.25
2023-01-27T01:31:14.176Z,100119.78
2023-01-27T01:31:55.900Z,100072.34
2023-01-27T01:32:37.738Z,100110.94
2023-01-27T01:33:19.418Z,100117.03
2023-01-27T01:34:01.114Z,100124.75
2023-01-27T01:34:43.685Z,100122.03
2023-01-27T01:35:25.754Z,100114.22
2023-01-27T01:36:10.350Z,100089.72
2023-01-27T01:36:51.985Z,100111.22
2023-01-27T01:37:33.745Z,100126.19
2023-01-27T01:38:15.407Z,100120.16
2023-01-27T01:38:57.480Z,100121.81
2023-01-27T01:39:39.350Z,100066.69
2023-01-27T01:40:24.692Z,100125.97
2023-01-27T01:41:12.402Z,100113.25
2023-01-27T01:41:55.020Z,100126.72
2023-01-27T01:43:01.017Z,100120.66
2023-01-27T01:43:42.973Z,100120.66
2023-01-27T01:44:32.489Z,100117.09
2023-01-27T01:45:33.661Z,100114.50
2023-01-27T01:46:15.745Z,100098.09
2023-01-27T01:46:58.357Z,100085.03
2023-01-27T01:47:40.043Z,100079.22
2023-01-27T01:48:27.260Z,100113.31
2023-01-27T01:49:08.924Z,100110.81
2023-01-27T01:49:50.676Z,100099.03
2023-01-27T01:50:34.439Z,100111.16
2023-01-27T01:51:28.301Z,100114.00
2023-01-27T01:52:16.058Z,100066.94
2023-01-27T01:52:59.904Z,100118.69
2023-01-27T01:53:57.533Z,100120.63
2023-01-27T01:54:44.073Z,100112.06
2023-01-27T01:55:25.814Z,100116.56
2023-01-27T01:56:14.622Z,100107.91
2023-01-27T01:57:03.378Z,100075.69
2023-01-27T01:57:45.273Z,100121.66
2023-01-27T01:58:28.170Z,100099.47
2023-01-27T01:59:19.558Z,100105.66
2023-01-27T02:00:07.939Z,100112.44
2023-01-27T02:00:56.177Z,100101.16
2023-01-27T02:01:37.855Z,100078.81
2023-01-27T02:02:24.449Z,100113.56
2023-01-27T02:03:08.168Z,100091.78
2023-01-27T02:03:57.017Z,100109.63
2023-01-27T02:05:03.649Z,100107.34
2023-01-27T02:05:45.508Z,100086.13
2023-01-27T02:06:27.866Z,100112.50
2023-01-27T02:07:26.656Z,100104.34
2023-01-27T02:08:17.694Z,100093.06
2023-01-27T02:08:59.545Z,100103.63
2023-01-27T02:09:41.240Z,100085.34
2023-01-27T02:10:23.369Z,100094.41
2023-01-27T02:11:05.021Z,100075.38
2023-01-27T02:11:46.792Z,100099.25
2023-01-27T02:12:28.595Z,100072.28
2023-01-27T02:13:10.412Z,100096.00
2023-01-27T02:13:52.620Z,100088.53
2023-01-27T02:14:34.583Z,100113.69
2023-01-27T02:15:18.040Z,100088.34
2023-01-27T02:16:00.364Z,100115.19
2023-01-27T02:16:42.114Z,100116.38
2023-01-27T02:17:24.830Z,100115.75
2023-01-27T02:18:07.615Z,100088.56
2023-01-27T02:18:49.437Z,100117.19
2023-01-27T02:19:45.755Z,100114.69
2023-01-27T02:20:34.325Z,100114.88
2023-01-27T02:21:16.063Z,100111.56
2023-01-27T02:21:59.302Z,100117.59
2023-01-27T02:23:15.659Z,100111.56
2023-01-27T02:24:01.931Z,100110.09
2023-01-27T02:24:49.674Z,100076.84
2023-01-27T02:25:34.206Z,100110.25
2023-01-27T02:26:21.002Z,100114.53
2023-01-27T02:27:02.635Z,100104.19
2023-01-27T02:27:44.480Z,100103.47
2023-01-27T02:28:30.331Z,100106.81
2023-01-27T02:29:14.564Z,100110.00
2023-01-27T02:29:56.399Z,100078.91
2023-01-27T02:30:38.203Z,100105.66
2023-01-27T02:31:20.008Z,100110.53
2023-01-27T02:32:02.841Z,100086.94
2023-01-27T02:32:44.525Z,100103.59
2023-01-27T02:33:26.568Z,100110.25
2023-01-27T02:34:14.786Z,100087.00
2023-01-27T02:34:57.396Z,100102.06
2023-01-27T02:35:45.609Z,100101.38
2023-01-27T02:36:31.564Z,100113.09
2023-01-27T02:37:13.453Z,100111.19
2023-01-27T02:37:56.113Z,100087.66
2023-01-27T02:38:48.658Z,100088.63
2023-01-27T02:39:37.294Z,100096.44
2023-01-27T02:40:20.632Z,100096.78
2023-01-27T02:41:11.908Z,100082.97
2023-01-27T02:41:56.762Z,100114.00
2023-01-27T02:42:38.457Z,100107.31
2023-01-27T02:43:20.377Z,100097.47
2023-01-27T02:44:02.058Z,100103.53
2023-01-27T02:44:43.785Z,100089.25
2023-01-27T02:45:25.966Z,100101.13
2023-01-27T02:46:08.622Z,100105.63
2023-01-27T02:46:50.294Z,100104.88
2023-01-27T02:47:31.978Z,100098.97
2023-01-27T02:48:14.566Z,100090.03
2023-01-27T02:48:56.880Z,100085.66
2023-01-27T02:49:38.557Z,100096.81
2023-01-27T02:50:20.315Z,100093.47
2023-01-27T02:51:02.339Z,100066.25
2023-01-27T02:51:46.487Z,100096.81
2023-01-27T02:52:28.233Z,100096.09
2023-01-27T02:53:10.061Z,100097.97
2023-01-27T02:53:52.072Z,100097.28
2023-01-27T02:54:34.976Z,100072.19
2023-01-27T02:55:17.250Z,100067.19
2023-01-27T02:55:59.111Z,100083.00
2023-01-27T02:56:41.393Z,100088.72
2023-01-27T02:57:23.704Z,100063.88
2023-01-27T02:58:24.782Z,100090.50
2023-01-27T02:59:10.732Z,100086.34
2023-01-27T02:59:56.009Z,100089.66
2023-01-27T03:00:37.777Z,100040.00
2023-01-27T03:01:19.584Z,100061.72
2023-01-27T03:02:01.244Z,100064.22
2023-01-27T03:02:43.754Z,100092.59
2023-01-27T03:03:25.440Z,100083.47
2023-01-27T03:04:09.180Z,100089.25
2023-01-27T03:04:50.851Z,100093.47
2023-01-27T03:05:34.449Z,100094.72
2023-01-27T03:06:16.738Z,100097.91
2023-01-27T03:06:58.571Z,100097.06
2023-01-27T03:07:42.398Z,100085.13
2023-01-27T03:08:24.183Z,100094.34
2023-01-27T03:09:05.851Z,100066.41
2023-01-27T03:09:47.501Z,100065.69
2023-01-27T03:10:29.127Z,100079.78
2023-01-27T03:11:12.898Z,100098.81
2023-01-27T03:12:13.218Z,100067.31
2023-01-27T03:12:55.010Z,100101.25
2023-01-27T03:13:37.621Z,100090.56
2023-01-27T03:14:19.599Z,100092.44
2023-01-27T03:15:21.200Z,100096.81
2023-01-27T03:16:22.594Z,100095.25
2023-01-27T03:17:23.350Z,100095.50
2023-01-27T03:18:16.456Z,100081.06
2023-01-27T03:18:58.247Z,100054.84
2023-01-27T03:19:45.778Z,100080.28
2023-01-27T03:20:27.628Z,100094.53
2023-01-27T03:21:09.291Z,100083.09
2023-01-27T03:21:51.216Z,100099.75
2023-01-27T03:22:34.574Z,100095.25
2023-01-27T03:23:18.843Z,100068.75
2023-01-27T03:24:05.602Z,100066.47
2023-01-27T03:24:47.356Z,100086.34
2023-01-27T03:25:29.042Z,100097.13
2023-01-27T03:26:11.910Z,100078.34
2023-01-27T03:26:57.824Z,100077.06
2023-01-27T03:27:51.535Z,100097.38
2023-01-27T03:29:18.211Z,100092.88
2023-01-27T03:30:00.297Z,100093.41
2023-01-27T03:30:42.446Z,100100.72
2023-01-27T03:31:34.993Z,100107.69
2023-01-27T03:32:18.262Z,100076.69
2023-01-27T03:33:11.493Z,100099.25
2023-01-27T03:34:15.253Z,100108.19
2023-01-27T03:35:02.095Z,100107.25
2023-01-27T03:35:48.716Z,100100.97
2023-01-27T03:36:53.299Z,100086.84
2023-01-27T03:37:53.737Z,100067.47
2023-01-27T03:38:53.889Z,100084.09
2023-01-27T03:39:54.161Z,100106.81
2023-01-27T03:40:54.382Z,100107.66
2023-01-27T03:41:55.025Z,100089.31
2023-01-27T03:42:58.750Z,100116.16
2023-01-27T03:44:00.443Z,100107.66
2023-01-27T03:45:01.617Z,100083.00
2023-01-27T03:46:10.068Z,100112.25
2023-01-27T03:46:51.799Z,100109.75
2023-01-27T03:47:33.411Z,100111.50
2023-01-27T03:48:17.252Z,100114.13
2023-01-27T03:48:59.858Z,100111.50
2023-01-27T03:49:44.042Z,100107.97
2023-01-27T03:50:37.967Z,100114.94
2023-01-27T03:51:22.905Z,100115.69
2023-01-27T03:52:04.592Z,100095.59
2023-01-27T03:53:02.978Z,100117.34
2023-01-27T03:53:45.101Z,100117.25
2023-01-27T03:54:26.766Z,100116.16
2023-01-27T03:55:09.367Z,100087.69
2023-01-27T03:55:51.089Z,100109.91
2023-01-27T03:56:32.701Z,100084.25
2023-01-27T03:57:14.586Z,100116.78
2023-01-27T03:57:57.007Z,100115.00
2023-01-27T03:58:39.224Z,100097.44
2023-01-27T03:59:20.981Z,100110.84
2023-01-27T04:00:02.857Z,100092.22
2023-01-27T04:00:57.894Z,100095.31
2023-01-27T04:01:39.749Z,100112.56
2023-01-27T04:02:43.266Z,100117.66
2023-01-27T04:03:45.238Z,100112.66
2023-01-27T04:04:45.636Z,100118.66
2023-01-27T04:05:45.985Z,100119.06
2023-01-27T04:06:49.170Z,100118.47
2023-01-27T04:07:30.793Z,100098.09
2023-01-27T04:08:12.465Z,100123.75
2023-01-27T04:08:54.548Z,100105.00
2023-01-27T04:09:36.676Z,100119.34
2023-01-27T04:10:18.377Z,100099.59
2023-01-27T04:11:24.735Z,100120.38
2023-01-27T04:12:07.044Z,100127.34
2023-01-27T04:12:48.776Z,100127.47
2023-01-27T04:13:30.433Z,100132.00
2023-01-27T04:14:12.862Z,100132.94
2023-01-27T04:14:54.475Z,100086.34
2023-01-27T04:15:36.406Z,100131.25
2023-01-27T04:16:19.807Z,100138.38
2023-01-27T04:17:04.157Z,100137.03
2023-01-27T04:17:45.808Z,100138.69
2023-01-27T04:18:27.424Z,100107.81
2023-01-27T04:19:11.241Z,100102.81
2023-01-27T04:19:52.878Z,100116.34
2023-01-27T04:20:34.541Z,100139.97
2023-01-27T04:21:16.153Z,100108.03
2023-01-27T04:22:01.248Z,100127.06
2023-01-27T04:22:42.896Z,100130.50
2023-01-27T04:23:24.497Z,100132.38
2023-01-27T04:24:16.654Z,100124.19
2023-01-27T04:24:58.489Z,100109.06
2023-01-27T04:25:40.116Z,100133.09
2023-01-27T04:26:23.591Z,100126.84
2023-01-27T04:27:08.459Z,100125.44
2023-01-27T04:27:50.134Z,100130.22
2023-01-27T04:28:43.819Z,100108.94
2023-01-27T04:29:29.126Z,100130.38
2023-01-27T04:30:11.311Z,100130.38
2023-01-27T04:30:53.345Z,100128.69
2023-01-27T04:31:35.353Z,100129.63
2023-01-27T04:32:17.007Z,100129.63
2023-01-27T04:33:04.662Z,100127.03
2023-01-27T04:33:46.425Z,100130.59
2023-01-27T04:34:28.381Z,100101.47
2023-01-27T04:35:10.120Z,100138.63
2023-01-27T04:35:51.806Z,100137.78
2023-01-27T04:36:33.526Z,100136.00
2023-01-27T04:37:15.208Z,100133.66
2023-01-27T04:37:56.901Z,100116.16
2023-01-27T04:38:38.528Z,100132.41
2023-01-27T04:39:20.645Z,100122.88
2023-01-27T04:40:02.390Z,100136.91
2023-01-27T04:40:44.565Z,100133.72
2023-01-27T04:41:26.535Z,100125.50
2023-01-27T04:42:08.619Z,100111.78
2023-01-27T04:42:54.307Z,100120.84
2023-01-27T04:43:36.294Z,100131.16
2023-01-27T04:44:21.685Z,100137.59
2023-01-27T04:45:03.586Z,100136.13
2023-01-27T04:45:45.256Z,100133.53
2023-01-27T04:46:26.957Z,100134.34
2023-01-27T04:47:08.604Z,100127.00
2023-01-27T04:47:50.722Z,100134.25
2023-01-27T04:48:32.590Z,100096.19
2023-01-27T04:49:14.460Z,100145.41
2023-01-27T04:49:56.114Z,100135.72
2023-01-27T04:50:37.714Z,100112.41
2023-01-27T04:51:19.442Z,100117.63
2023-01-27T04:52:01.125Z,100134.16
2023-01-27T04:52:42.906Z,100116.56
2023-01-27T04:53:24.837Z,100135.72
2023-01-27T04:54:06.544Z,100131.44
2023-01-27T04:54:48.203Z,100132.16
2023-01-27T04:55:29.862Z,100098.84
2023-01-27T04:56:19.717Z,100125.28
2023-01-27T04:57:05.680Z,100120.22
2023-01-27T04:57:47.341Z,100139.25
2023-01-27T04:58:29.091Z,100136.53
2023-01-27T04:59:13.255Z,100122.41
2023-01-27T04:59:54.898Z,100138.00
2023-01-27T05:00:36.567Z,100131.94
2023-01-27T05:01:18.643Z,100131.94
2023-01-27T05:02:00.351Z,100134.56
2023-01-27T05:02:42.002Z,100106.13
2023-01-27T05:03:23.802Z,100134.09
2023-01-27T05:04:05.525Z,100131.88
2023-01-27T05:04:47.151Z,100117.50
2023-01-27T05:05:28.763Z,100097.78
2023-01-27T05:06:11.485Z,100115.41
2023-01-27T05:06:53.373Z,100115.25
2023-01-27T05:07:35.346Z,100130.97
2023-01-27T05:08:17.193Z,100117.38
2023-01-27T05:08:58.920Z,100141.75
2023-01-27T05:09:40.539Z,100109.41
2023-01-27T05:10:22.358Z,100098.38
2023-01-27T05:11:04.301Z,100114.53
2023-01-27T05:11:46.004Z,100139.47
2023-01-27T05:12:27.818Z,100107.13
2023-01-27T05:13:09.491Z,100138.41
2023-01-27T05:13:51.283Z,100094.00
2023-01-27T05:14:32.894Z,100112.28
2023-01-27T05:15:15.059Z,100134.41
2023-01-27T05:16:27.711Z,100124.22
2023-01-27T05:17:09.557Z,100139.09
2023-01-27T05:17:51.275Z,100117.25
2023-01-27T05:18:33.011Z,100115.00
2023-01-27T05:19:14.634Z,100099.31
2023-01-27T05:19:56.298Z,100134.50
2023-01-27T05:20:37.989Z,100136.50
2023-01-27T05:21:22.433Z,100134.94
2023-01-27T05:22:04.120Z,100135.28
2023-01-27T05:22:45.827Z,100130.41
2023-01-27T05:23:37.084Z,100136.56
2023-01-27T05:24:18.735Z,100138.44
2023-01-27T05:25:00.668Z,100109.56
2023-01-27T05:25:45.179Z,100140.81
2023-01-27T05:26:28.280Z,100150.41
2023-01-27T05:27:10.076Z,100143.00
2023-01-27T05:27:53.896Z,100125.06
2023-01-27T05:28:37.313Z,100146.69
2023-01-27T05:29:18.928Z,100143.94
2023-01-27T05:30:00.583Z,100120.91
2023-01-27T05:30:42.272Z,100128.25
2023-01-27T05:31:26.715Z,100148.13
2023-01-27T05:32:08.431Z,100141.03
2023-01-27T05:32:50.091Z,100121.50
2023-01-27T05:33:31.941Z,100146.97
2023-01-27T05:34:13.609Z,100156.06
2023-01-27T05:34:55.288Z,100150.41
2023-01-27T05:35:36.957Z,100124.59
2023-01-27T05:36:20.778Z,100153.84
2023-01-27T05:37:02.432Z,100155.50
2023-01-27T05:37:44.040Z,100153.13
2023-01-27T05:38:25.867Z,100153.72
2023-01-27T05:39:10.717Z,100155.28
2023-01-27T05:39:52.441Z,100116.66
2023-01-27T05:40:34.054Z,100149.59
2023-01-27T05:41:18.010Z,100150.34
2023-01-27T05:41:59.625Z,100145.84
2023-01-27T05:42:41.282Z,100142.84
2023-01-27T05:43:23.041Z,100117.66
2023-01-27T05:44:05.159Z,100132.88
2023-01-27T05:44:47.509Z,100150.66
2023-01-27T05:45:30.328Z,100149.09
2023-01-27T05:46:13.378Z,100135.19
2023-01-27T05:46:55.120Z,100152.91
2023-01-27T05:47:36.763Z,100147.91
2023-01-27T05:48:18.568Z,100153.34
2023-01-27T05:49:02.306Z,100155.22
2023-01-27T05:49:44.019Z,100145.03
2023-01-27T05:50:25.694Z,100121.22
2023-01-27T05:51:07.848Z,100150.94
2023-01-27T05:51:49.710Z,100151.66
2023-01-27T05:52:31.327Z,100125.66
2023-01-27T05:53:12.975Z,100135.13
2023-01-27T05:53:57.172Z,100143.84
2023-01-27T05:54:38.793Z,100161.28
2023-01-27T05:55:20.387Z,100135.50
2023-01-27T05:56:03.186Z,100156.16
2023-01-27T05:56:44.920Z,100118.41
2023-01-27T05:57:26.597Z,100141.47
2023-01-27T05:58:08.499Z,100148.13
2023-01-27T05:58:50.125Z,100145.63
2023-01-27T05:59:31.746Z,100152.38
2023-01-27T06:00:14.055Z,100155.22
2023-01-27T06:00:55.758Z,100158.56
2023-01-27T06:01:37.894Z,100121.00
2023-01-27T06:02:21.879Z,100093.28
2023-01-27T06:03:04.460Z,100158.66
2023-01-27T06:03:47.071Z,100133.81
2023-01-27T06:04:28.700Z,100160.44
2023-01-27T06:05:10.387Z,100124.22
2023-01-27T06:05:54.463Z,100149.56
2023-01-27T06:06:36.397Z,100151.22
2023-01-27T06:07:18.101Z,100151.84
2023-01-27T06:07:59.709Z,100153.28
2023-01-27T06:08:41.816Z,100121.66
2023-01-27T06:09:23.439Z,100133.09
2023-01-27T06:10:05.832Z,100153.88
2023-01-27T06:10:47.514Z,100150.34
2023-01-27T06:11:29.325Z,100117.03
2023-01-27T06:12:11.052Z,100149.28
2023-01-27T06:12:52.720Z,100156.75
2023-01-27T06:13:38.981Z,100159.13
2023-01-27T06:14:20.795Z,100159.03
2023-01-27T06:15:03.258Z,100158.19
2023-01-27T06:15:46.569Z,100160.09
2023-01-27T06:16:28.378Z,100127.88
2023-01-27T06:17:10.073Z,100159.97
2023-01-27T06:17:52.873Z,100123.84
2023-01-27T06:18:35.007Z,100163.09
2023-01-27T06:19:16.751Z,100134.00
2023-01-27T06:19:58.393Z,100148.94
2023-01-27T06:20:40.688Z,100127.09
2023-01-27T06:21:22.382Z,100157.91
2023-01-27T06:22:04.111Z,100153.41
2023-01-27T06:22:46.614Z,100130.56
2023-01-27T06:23:28.617Z,100149.69
2023-01-27T06:24:12.571Z,100166.47
2023-01-27T06:24:55.099Z,100155.88
2023-01-27T06:25:41.813Z,100159.00
2023-01-27T06:26:23.660Z,100158.16
2023-01-27T06:27:05.371Z,100165.28
2023-01-27T06:27:48.434Z,100159.47
2023-01-27T06:28:30.397Z,100140.56
2023-01-27T06:29:12.037Z,100165.97
2023-01-27T06:29:53.703Z,100162.66
2023-01-27T06:30:36.745Z,100171.31
2023-01-27T06:31:24.174Z,100161.91
2023-01-27T06:32:06.173Z,100162.28
2023-01-27T06:32:47.829Z,100170.13
2023-01-27T06:33:29.480Z,100147.97
2023-01-27T06:34:11.132Z,100147.28
2023-01-27T06:34:52.753Z,100150.16
2023-01-27T06:35:35.703Z,100179.50
2023-01-27T06:36:19.874Z,100173.56
2023-01-27T06:37:01.580Z,100135.50
2023-01-27T06:37:43.267Z,100167.91
2023-01-27T06:38:24.925Z,100179.19
2023-01-27T06:39:06.796Z,100143.53
2023-01-27T06:39:48.447Z,100173.25
2023-01-27T06:40:31.667Z,100168.53
2023-01-27T06:41:13.390Z,100175.66
2023-01-27T06:41:55.060Z,100156.78
2023-01-27T06:42:36.781Z,100152.03
2023-01-27T06:43:18.433Z,100138.25
2023-01-27T06:44:00.186Z,100169.16
2023-01-27T06:44:41.806Z,100162.50
2023-01-27T06:45:23.903Z,100165.88
2023-01-27T06:46:06.237Z,100162.53
2023-01-27T06:46:48.137Z,100175.25
2023-01-27T06:47:29.773Z,100171.56
2023-01-27T06:48:11.461Z,100148.75
2023-01-27T06:48:53.163Z,100172.16
2023-01-27T06:49:34.831Z,100181.56
2023-01-27T06:50:16.520Z,100182.28
2023-01-27T06:50:58.508Z,100181.66
2023-01-27T06:51:40.177Z,100163.25
2023-01-27T06:52:21.803Z,100173.59
2023-01-27T06:53:06.219Z,100181.22
2023-01-27T06:53:47.897Z,100157.81
2023-01-27T06:54:29.574Z,100177.59
2023-01-27T06:55:11.233Z,100178.59
2023-01-27T06:55:57.835Z,100157.88
2023-01-27T06:56:39.428Z,100183.53
2023-01-27T06:57:21.100Z,100187.81
2023-01-27T06:58:02.997Z,100161.53
2023-01-27T06:58:44.809Z,100170.09
2023-01-27T06:59:26.475Z,100158.81
2023-01-27T07:00:08.961Z,100186.75
2023-01-27T07:00:51.983Z,100177.38
2023-01-27T07:01:33.721Z,100153.94
2023-01-27T07:02:15.654Z,100190.66
2023-01-27T07:02:57.688Z,100191.38
2023-01-27T07:03:39.423Z,100188.78
2023-01-27T07:04:22.077Z,100189.63
2023-01-27T07:05:04.476Z,100203.59
2023-01-27T07:05:46.387Z,100171.41
2023-01-27T07:06:28.082Z,100207.56
2023-01-27T07:07:09.918Z,100178.88
2023-01-27T07:07:51.732Z,100198.13
2023-01-27T07:08:33.480Z,100205.34
2023-01-27T07:09:15.630Z,100178.75
2023-01-27T07:09:58.443Z,100204.81
2023-01-27T07:10:40.300Z,100197.31
2023-01-27T07:11:22.851Z,100214.78
2023-01-27T07:12:04.898Z,100216.22
2023-01-27T07:12:46.783Z,100185.91
2023-01-27T07:13:28.479Z,100211.03
2023-01-27T07:14:10.680Z,100209.03
2023-01-27T07:14:52.337Z,100205.31
2023-01-27T07:15:34.422Z,100189.38
2023-01-27T07:16:16.102Z,100208.84
2023-01-27T07:16:57.784Z,100211.22
2023-01-27T07:17:39.810Z,100229.16
2023-01-27T07:18:21.953Z,100209.91
2023-01-27T07:19:03.612Z,100229.50
2023-01-27T07:19:45.306Z,100223.34
2023-01-27T07:20:30.886Z,100224.28
2023-01-27T07:21:12.774Z,100146.28
2023-01-27T07:21:56.355Z,100202.16
2023-01-27T07:22:38.112Z,100224.16
2023-01-27T07:23:21.116Z,100231.38
2023-01-27T07:24:03.282Z,100221.75
2023-01-27T07:24:45.075Z,100226.75
2023-01-27T07:25:28.151Z,100198.06
2023-01-27T07:26:23.124Z,100228.63
2023-01-27T07:27:06.162Z,100232.81
2023-01-27T07:27:47.819Z,100205.00
2023-01-27T07:28:30.023Z,100235.75
2023-01-27T07:29:13.855Z,100227.03
2023-01-27T07:29:55.568Z,100184.94
2023-01-27T07:30:38.884Z,100232.72
2023-01-27T07:31:20.751Z,100232.00
2023-01-27T07:32:05.282Z,100212.75
2023-01-27T07:32:47.201Z,100228.03
2023-01-27T07:33:29.039Z,100232.22
2023-01-27T07:34:10.918Z,100217.44
2023-01-27T07:34:52.536Z,100206.63
2023-01-27T07:35:35.870Z,100209.09
2023-01-27T07:36:17.581Z,100239.72
2023-01-27T07:36:59.314Z,100212.00
2023-01-27T07:37:41.533Z,100238.06
2023-01-27T07:38:23.259Z,100228.41
2023-01-27T07:39:04.911Z,100210.28
2023-01-27T07:39:48.165Z,100240.03
2023-01-27T07:40:30.057Z,100233.38
2023-01-27T07:41:11.804Z,100238.88
2023-01-27T07:41:53.541Z,100242.22
2023-01-27T07:42:36.460Z,100244.00
2023-01-27T07:43:18.154Z,100228.41
2023-01-27T07:44:01.502Z,100238.38
2023-01-27T07:44:43.246Z,100235.03
2023-01-27T07:45:25.171Z,100213.63
2023-01-27T07:46:07.061Z,100254.88
2023-01-27T07:46:48.720Z,100230.94
2023-01-27T07:47:30.430Z,100243.59
2023-01-27T07:48:12.977Z,100246.09
2023-01-27T07:48:54.684Z,100251.47
2023-01-27T07:49:36.360Z,100231.06
2023-01-27T07:50:18.118Z,100242.81
2023-01-27T07:50:59.711Z,100237.94
2023-01-27T07:51:41.449Z,100219.00
2023-01-27T07:52:23.092Z,100245.41
2023-01-27T07:53:06.745Z,100232.53
2023-01-27T07:53:48.380Z,100248.03
2023-01-27T07:54:29.982Z,100256.69
2023-01-27T07:55:11.983Z,100240.78
2023-01-27T07:55:53.961Z,100226.63
2023-01-27T07:56:36.657Z,100259.19
2023-01-27T07:57:18.429Z,100231.69
2023-01-27T07:58:00.236Z,100260.03
2023-01-27T07:58:42.586Z,100261.69
2023-01-27T07:59:24.327Z,100249.22
2023-01-27T08:00:06.608Z,100225.66
2023-01-27T08:00:54.068Z,100239.09
2023-01-27T08:01:36.600Z,100234.19
2023-01-27T08:02:18.278Z,100270.03
2023-01-27T08:03:03.019Z,100266.22
2023-01-27T08:03:44.757Z,100265.66
2023-01-27T08:04:26.574Z,100269.47
2023-01-27T08:05:08.838Z,100256.97
2023-01-27T08:05:50.981Z,100261.31
2023-01-27T08:06:32.684Z,100237.97
2023-01-27T08:07:14.458Z,100238.94
2023-01-27T08:07:58.839Z,100277.44
2023-01-27T08:08:41.652Z,100240.34
2023-01-27T08:09:23.365Z,100272.13
2023-01-27T08:10:05.150Z,100272.94
2023-01-27T08:10:49.312Z,100279.84
2023-01-27T08:11:31.066Z,100269.41
2023-01-27T08:12:12.746Z,100254.53
2023-01-27T08:12:54.491Z,100280.94
2023-01-27T08:13:36.640Z,100272.97
2023-01-27T08:14:18.489Z,100261.56
2023-01-27T08:15:00.180Z,100276.31
2023-01-27T08:15:41.913Z,100273.56
2023-01-27T08:16:23.671Z,100273.47
2023-01-27T08:17:05.519Z,100277.16
2023-01-27T08:17:57.439Z,100263.13
2023-01-27T08:18:39.219Z,100269.75
2023-01-27T08:19:20.936Z,100286.56
2023-01-27T08:20:03.261Z,100278.94
2023-01-27T08:20:46.125Z,100287.81
2023-01-27T08:21:32.798Z,100253.69
2023-01-27T08:22:19.746Z,100254.31
2023-01-27T08:23:01.473Z,100292.72